createdAt,value
2019-04-06T00:01:08.295Z,1.14
2019-04-06T00:03:39.928Z,1.17
2019-04-06T00:06:11.574Z,1.32
2019-04-06T00:08:44.133Z,1.19
2019-04-06T00:11:15.782Z,1.10
2019-04-06T00:13:47.451Z,1.20
2019-04-06T00:16:19.082Z,1.26
2019-04-06T00:18:50.391Z,1.12
2019-04-06T00:21:22.016Z,0.99
2019-04-06T00:23:53.643Z,0.89
2019-04-06T00:26:52.696Z,0.79
2019-04-06T00:29:24.284Z,0.62
2019-04-06T00:32:00.031Z,0.46
2019-04-06T00:34:31.620Z,0.52
2019-04-06T00:37:03.261Z,0.39
2019-04-06T00:39:34.779Z,0.45
2019-04-06T00:42:06.427Z,0.46
2019-04-06T00:44:38.009Z,0.58
2019-04-06T00:47:09.631Z,0.37
2019-04-06T00:49:41.199Z,0.18
2019-04-06T00:52:12.775Z,0.15
2019-04-06T00:54:44.347Z,0.10
2019-04-06T00:57:15.840Z,0.06
2019-04-06T00:59:47.486Z,-0.02
2019-04-06T01:02:19.082Z,-0.08
2019-04-06T01:04:50.825Z,0.12
2019-04-06T01:07:23.274Z,0.08
2019-04-06T01:09:56.593Z,0.33
2019-04-06T01:12:28.199Z,0.32
2019-04-06T01:14:59.875Z,0.41
2019-04-06T01:17:31.487Z,0.63
2019-04-06T01:20:03.117Z,0.67
2019-04-06T01:22:34.708Z,0.51
2019-04-06T01:25:07.820Z,0.47
2019-04-06T01:27:39.439Z,0.55
2019-04-06T01:30:11.318Z,0.48
2019-04-06T01:32:43.073Z,0.51
2019-04-06T01:35:14.660Z,0.63
2019-04-06T01:37:46.275Z,0.68
2019-04-06T01:40:17.861Z,0.70
2019-04-06T01:42:49.510Z,0.68
2019-04-06T01:45:21.028Z,0.61
2019-04-06T01:47:53.466Z,0.51
2019-04-06T01:50:24.979Z,0.52
2019-04-06T01:52:56.613Z,0.64
2019-04-06T01:55:28.210Z,0.78
2019-04-06T01:57:59.885Z,0.84
2019-04-06T02:00:31.496Z,0.86
2019-04-06T02:03:03.163Z,0.86
2019-04-06T02:05:34.743Z,0.79
2019-04-06T02:08:06.344Z,0.61
2019-04-06T02:10:39.242Z,0.37
2019-04-06T02:13:10.798Z,0.17
2019-04-06T02:15:42.472Z,0.00
2019-04-06T02:18:14.030Z,-0.11
2019-04-06T02:20:46.671Z,-0.25
2019-04-06T02:23:18.197Z,-0.35
2019-04-06T02:25:51.322Z,-0.42
2019-04-06T02:28:22.907Z,-0.45
2019-04-06T02:30:59.018Z,-0.49
2019-04-06T02:33:50.501Z,-0.50
2019-04-06T02:36:39.851Z,-0.41
2019-04-06T02:39:16.275Z,-0.29
2019-04-06T02:41:49.480Z,-0.29
2019-04-06T02:44:21.118Z,-0.33
2019-04-06T02:46:52.882Z,-0.31
2019-04-06T02:49:24.660Z,-0.26
2019-04-06T02:51:56.159Z,-0.30
2019-04-06T02:54:27.801Z,-0.34
2019-04-06T02:56:59.427Z,-0.40
2019-04-06T02:59:31.263Z,-0.53
2019-04-06T03:02:02.930Z,-0.66
2019-04-06T03:04:34.477Z,-0.79
2019-04-06T03:07:06.087Z,-0.84
2019-04-06T03:09:37.667Z,-0.84
2019-04-06T03:12:09.308Z,-0.85
2019-04-06T03:14:44.047Z,-0.85
2019-04-06T03:17:14.265Z,-0.86
2019-04-06T03:19:45.793Z,-0.91
2019-04-06T03:22:17.459Z,-0.96
2019-04-06T03:24:50.339Z,-0.99
2019-04-06T03:27:21.916Z,-0.98
2019-04-06T03:29:58.345Z,-0.96
2019-04-06T03:32:26.880Z,-0.77
2019-04-06T03:34:58.894Z,-0.61
2019-04-06T03:37:30.857Z,-0.48
2019-04-06T03:40:02.445Z,-0.25
2019-04-06T03:42:34.074Z,-0.07
2019-04-06T03:45:08.478Z,0.06
2019-04-06T03:47:40.060Z,0.19
2019-04-06T03:50:11.783Z,0.49
2019-04-06T03:52:43.371Z,0.82
2019-04-06T03:55:14.927Z,1.03
2019-04-06T03:57:46.516Z,1.22
2019-04-06T04:00:18.158Z,1.43
2019-04-06T04:02:49.833Z,1.81
2019-04-06T04:05:21.407Z,2.01
2019-04-06T04:07:53.001Z,2.31
2019-04-06T04:10:36.726Z,2.68
2019-04-06T04:13:08.288Z,3.12
2019-04-06T04:15:39.918Z,3.72
2019-04-06T04:18:11.579Z,4.34
2019-04-06T04:20:43.283Z,5.25
2019-04-06T04:23:14.905Z,6.08
2019-04-06T04:25:46.557Z,6.33
2019-04-06T04:28:21.285Z,6.71
2019-04-06T04:30:53.128Z,7.11
2019-04-06T04:33:24.772Z,7.50
2019-04-06T04:35:56.369Z,7.86
2019-04-06T04:38:28.000Z,7.73
2019-04-06T04:40:59.526Z,8.62
2019-04-06T04:43:31.228Z,8.62
2019-04-06T04:46:02.877Z,9.33
2019-04-06T04:48:34.445Z,9.49
2019-04-06T04:51:07.283Z,9.37
2019-04-06T04:53:38.804Z,9.88
2019-04-06T04:56:10.357Z,10.29
2019-04-06T04:58:42.177Z,11.59
2019-04-06T05:01:13.852Z,12.49
2019-04-06T05:03:45.845Z,12.12
2019-04-06T05:06:17.522Z,12.18
2019-04-06T05:08:49.051Z,12.63
2019-04-06T05:11:20.799Z,12.88
2019-04-06T05:13:55.242Z,13.08
2019-04-06T05:16:26.880Z,13.67
2019-04-06T05:18:58.464Z,14.71
2019-04-06T05:21:30.143Z,14.61
2019-04-06T05:24:01.714Z,14.92
2019-04-06T05:26:38.329Z,15.22
2019-04-06T05:29:10.189Z,16.60
2019-04-06T05:31:42.074Z,16.52
2019-04-06T05:34:13.634Z,16.09
2019-04-06T05:36:45.212Z,16.65
2019-04-06T05:39:16.759Z,16.54
2019-04-06T05:41:50.447Z,16.72
2019-04-06T05:44:23.218Z,17.10
2019-04-06T05:46:54.838Z,17.16
2019-04-06T05:49:26.473Z,16.95
2019-04-06T05:51:58.161Z,17.30
2019-04-06T05:54:29.778Z,16.63
2019-04-06T05:57:01.358Z,16.70
2019-04-06T05:59:32.921Z,17.16
2019-04-06T06:02:04.554Z,16.94
2019-04-06T06:04:36.135Z,16.64
2019-04-06T06:07:08.446Z,16.38
2019-04-06T06:09:40.019Z,16.19
2019-04-06T06:12:13.865Z,15.96
2019-04-06T06:14:45.449Z,16.57
2019-04-06T06:17:19.202Z,16.62
2019-04-06T06:19:50.780Z,16.77
2019-04-06T06:22:22.793Z,16.76
2019-04-06T06:24:54.389Z,16.77
2019-04-06T06:27:25.961Z,16.88
2019-04-06T06:29:57.532Z,17.08
2019-04-06T06:32:31.758Z,17.43
2019-04-06T06:35:03.350Z,17.53
2019-04-06T06:37:34.958Z,17.79
2019-04-06T06:40:07.748Z,18.34
2019-04-06T06:42:39.350Z,18.31
2019-04-06T06:45:11.076Z,18.49
2019-04-06T06:47:42.678Z,18.65
2019-04-06T06:50:14.506Z,18.67
2019-04-06T06:52:46.153Z,18.54
2019-04-06T06:55:18.433Z,18.69
2019-04-06T06:57:50.165Z,19.33
2019-04-06T07:00:21.926Z,19.53
2019-04-06T07:02:54.009Z,19.15
2019-04-06T07:05:25.739Z,19.61
2019-04-06T07:07:59.061Z,19.83
2019-04-06T07:10:30.822Z,19.90
2019-04-06T07:13:04.117Z,20.38
2019-04-06T07:15:35.719Z,20.80
2019-04-06T07:18:07.334Z,20.48
2019-04-06T07:20:38.882Z,20.59
2019-04-06T07:23:10.481Z,20.49
2019-04-06T07:25:42.024Z,20.76
2019-04-06T07:28:13.657Z,21.02
2019-04-06T07:30:45.264Z,21.44
2019-04-06T07:33:17.618Z,21.08
2019-04-06T07:35:49.270Z,20.74
2019-04-06T07:38:20.790Z,21.55
2019-04-06T07:40:52.555Z,21.81
2019-04-06T07:43:24.079Z,21.26
2019-04-06T07:45:57.516Z,21.17
2019-04-06T07:48:29.132Z,21.16
2019-04-06T07:51:00.700Z,21.57
2019-04-06T07:53:32.490Z,21.02
2019-04-06T07:56:04.257Z,20.93
2019-04-06T07:58:35.901Z,20.29
2019-04-06T08:01:07.485Z,20.08
2019-04-06T08:03:39.113Z,20.39
2019-04-06T08:06:10.705Z,20.66
2019-04-06T08:08:42.361Z,20.90
2019-04-06T08:11:13.867Z,20.36
2019-04-06T08:13:46.026Z,21.00
2019-04-06T08:16:17.663Z,21.23
2019-04-06T08:18:49.235Z,21.06
2019-04-06T08:21:20.898Z,20.92
2019-04-06T08:23:52.480Z,20.61
2019-04-06T08:26:24.081Z,20.61
2019-04-06T08:29:01.775Z,20.44
2019-04-06T08:31:29.047Z,20.50
2019-04-06T08:34:00.637Z,20.15
2019-04-06T08:36:32.368Z,20.11
2019-04-06T08:39:05.700Z,20.06
2019-04-06T08:41:37.258Z,20.10
2019-04-06T08:44:09.414Z,20.20
2019-04-06T08:46:41.062Z,20.01
2019-04-06T08:49:12.635Z,20.23
2019-04-06T08:51:44.269Z,20.06
2019-04-06T08:54:16.462Z,19.69
2019-04-06T08:56:50.355Z,19.84
2019-04-06T08:59:23.198Z,20.09
2019-04-06T09:01:56.696Z,19.78
2019-04-06T09:04:28.209Z,19.52
2019-04-06T09:06:59.753Z,19.90
2019-04-06T09:09:32.780Z,20.07
2019-04-06T09:12:06.378Z,20.21
2019-04-06T09:14:37.965Z,20.25
2019-04-06T09:17:09.748Z,20.16
2019-04-06T09:19:41.487Z,19.82
2019-04-06T09:22:13.123Z,19.89
2019-04-06T09:24:45.928Z,20.01
2019-04-06T09:27:18.820Z,19.95
2019-04-06T09:30:04.177Z,19.49
2019-04-06T09:32:35.652Z,19.22
2019-04-06T09:35:07.235Z,18.56
2019-04-06T09:37:39.015Z,18.13
2019-04-06T09:40:10.639Z,17.83
2019-04-06T09:42:42.215Z,17.64
2019-04-06T09:45:32.061Z,17.33
2019-04-06T09:48:11.325Z,17.18
2019-04-06T09:51:00.689Z,17.39
2019-04-06T09:53:42.755Z,17.46
2019-04-06T09:56:29.697Z,17.18
2019-04-06T09:59:17.901Z,16.60
2019-04-06T10:01:51.091Z,16.52
2019-04-06T10:04:33.472Z,16.48
2019-04-06T10:07:22.981Z,16.47
2019-04-06T10:09:56.141Z,16.52
2019-04-06T10:12:44.492Z,16.32
2019-04-06T10:15:17.777Z,16.27
2019-04-06T10:18:06.081Z,16.34
2019-04-06T10:20:43.103Z,16.01
2019-04-06T10:23:23.816Z,16.28
2019-04-06T10:25:59.975Z,16.46
2019-04-06T10:28:42.154Z,16.29
2019-04-06T10:31:15.332Z,16.17
2019-04-06T10:34:06.982Z,16.17
2019-04-06T10:36:44.302Z,16.12
2019-04-06T10:39:32.393Z,16.07
2019-04-06T10:42:08.285Z,16.21
2019-04-06T10:44:44.403Z,16.38
2019-04-06T10:47:29.783Z,16.56
2019-04-06T10:50:11.938Z,16.51
2019-04-06T10:52:45.101Z,16.38
2019-04-06T10:55:18.411Z,16.21
2019-04-06T10:57:51.531Z,16.34
2019-04-06T11:00:31.043Z,16.36
2019-04-06T11:03:10.241Z,16.45
2019-04-06T11:05:43.473Z,16.30
2019-04-06T11:08:19.373Z,16.32
2019-04-06T11:10:53.045Z,16.30
2019-04-06T11:13:29.456Z,16.53
2019-04-06T11:16:03.022Z,16.81
2019-04-06T11:18:36.355Z,16.72
2019-04-06T11:21:12.541Z,16.62
2019-04-06T11:23:45.736Z,16.44
2019-04-06T11:26:34.238Z,16.50
2019-04-06T11:29:25.903Z,16.61
2019-04-06T11:32:05.957Z,16.63
2019-04-06T11:34:56.371Z,16.70
2019-04-06T11:37:47.173Z,16.80
2019-04-06T11:40:23.479Z,16.83
2019-04-06T11:42:59.695Z,16.96
2019-04-06T11:45:49.628Z,16.93
2019-04-06T11:48:35.238Z,16.84
2019-04-06T11:51:24.499Z,17.03
2019-04-06T11:54:06.678Z,16.65
2019-04-06T11:56:41.001Z,16.36
2019-04-06T11:59:30.297Z,16.39
2019-04-06T12:02:03.814Z,16.46
2019-04-06T12:04:38.430Z,16.51
2019-04-06T12:07:11.639Z,16.65
2019-04-06T12:09:44.801Z,16.79
2019-04-06T12:12:30.483Z,16.74
2019-04-06T12:15:06.375Z,16.76
2019-04-06T12:17:49.853Z,16.73
2019-04-06T12:20:28.872Z,16.64
2019-04-06T12:23:02.055Z,16.64
2019-04-06T12:25:35.250Z,16.73
2019-04-06T12:28:11.601Z,16.65
2019-04-06T12:30:57.025Z,16.57
2019-04-06T12:33:36.303Z,16.49
2019-04-06T12:36:21.351Z,16.50
2019-04-06T12:39:09.785Z,16.65
2019-04-06T12:41:49.175Z,16.65
2019-04-06T12:44:38.536Z,16.84
2019-04-06T12:47:12.077Z,16.77
2019-04-06T12:49:46.707Z,16.37
2019-04-06T12:52:23.695Z,16.36
2019-04-06T12:54:56.960Z,16.33
2019-04-06T12:57:30.449Z,16.31
2019-04-06T13:00:03.647Z,16.36
2019-04-06T13:02:52.652Z,16.37
2019-04-06T13:05:38.242Z,16.38
2019-04-06T13:08:29.441Z,16.46
2019-04-06T13:11:19.888Z,16.50
2019-04-06T13:13:56.431Z,16.50
2019-04-06T13:16:29.581Z,16.58
2019-04-06T13:19:05.630Z,16.57
2019-04-06T13:21:45.122Z,16.70
2019-04-06T13:24:21.073Z,16.57
2019-04-06T13:27:08.105Z,16.55
2019-04-06T13:29:41.348Z,16.49
2019-04-06T13:32:30.784Z,16.47
2019-04-06T13:35:16.155Z,16.48
2019-04-06T13:38:01.339Z,16.54
2019-04-06T13:40:37.497Z,16.57
2019-04-06T13:43:19.909Z,16.65
2019-04-06T13:45:55.993Z,16.66
2019-04-06T13:48:38.303Z,16.49
2019-04-06T13:51:17.440Z,16.40
2019-04-06T13:53:53.741Z,16.27
2019-04-06T13:56:45.087Z,16.28
2019-04-06T13:59:34.585Z,16.28
2019-04-06T14:02:10.483Z,16.47
2019-04-06T14:04:48.941Z,16.40
2019-04-06T14:07:34.116Z,16.32
2019-04-06T14:10:14.767Z,16.26
2019-04-06T14:12:56.968Z,16.21
2019-04-06T14:15:40.079Z,16.13
2019-04-06T14:18:19.306Z,15.96
2019-04-06T14:21:08.861Z,15.95
2019-04-06T14:23:58.358Z,16.00
2019-04-06T14:26:34.554Z,15.85
2019-04-06T14:29:10.670Z,15.79
2019-04-06T14:32:00.601Z,15.82
2019-04-06T14:34:40.113Z,15.89
2019-04-06T14:37:14.920Z,15.89
2019-04-06T14:39:59.867Z,15.90
2019-04-06T14:42:33.072Z,15.73
2019-04-06T14:45:07.674Z,15.66
2019-04-06T14:47:56.997Z,15.57
2019-04-06T14:50:30.666Z,15.55
2019-04-06T14:53:12.751Z,15.41
2019-04-06T14:55:52.399Z,15.41
2019-04-06T14:58:29.125Z,15.65
2019-04-06T15:01:20.822Z,15.62
2019-04-06T15:04:10.217Z,15.53
2019-04-06T15:06:52.609Z,15.51
2019-04-06T15:09:30.231Z,15.44
2019-04-06T15:12:03.761Z,15.25
2019-04-06T15:14:42.853Z,15.22
2019-04-06T15:17:16.215Z,15.17
2019-04-06T15:19:52.144Z,15.20
2019-04-06T15:22:25.379Z,15.16
2019-04-06T15:25:13.701Z,15.10
2019-04-06T15:28:04.288Z,15.05
2019-04-06T15:30:56.930Z,14.98
2019-04-06T15:33:44.819Z,14.87
2019-04-06T15:36:18.398Z,14.86
2019-04-06T15:38:54.397Z,14.85
2019-04-06T15:41:36.978Z,14.78
2019-04-06T15:44:26.501Z,14.72
2019-04-06T15:47:02.762Z,14.63
2019-04-06T15:49:37.515Z,14.56
2019-04-06T15:52:15.339Z,14.47
2019-04-06T15:55:02.694Z,14.40
2019-04-06T15:57:44.785Z,14.29
2019-04-06T16:00:34.536Z,14.16
2019-04-06T16:03:14.083Z,14.12
2019-04-06T16:05:57.743Z,14.03
2019-04-06T16:08:33.315Z,13.96
2019-04-06T16:11:13.378Z,13.84
2019-04-06T16:14:05.348Z,13.71
2019-04-06T16:16:41.502Z,13.58
2019-04-06T16:19:33.334Z,13.48
2019-04-06T16:22:16.013Z,13.38
2019-04-06T16:24:58.546Z,13.25
2019-04-06T16:27:42.572Z,13.03
2019-04-06T16:30:16.652Z,12.89
2019-04-06T16:32:52.286Z,12.77
2019-04-06T16:35:30.589Z,12.71
2019-04-06T16:38:12.306Z,12.68
2019-04-06T16:40:53.158Z,12.65
2019-04-06T16:43:29.178Z,12.67
2019-04-06T16:46:07.614Z,12.61
2019-04-06T16:48:41.163Z,12.52
2019-04-06T16:51:17.733Z,12.43
2019-04-06T16:53:53.465Z,12.31
2019-04-06T16:56:40.562Z,12.29
2019-04-06T16:59:30.976Z,12.23
2019-04-06T17:02:22.102Z,12.20
2019-04-06T17:05:02.721Z,12.22
2019-04-06T17:07:54.661Z,12.23
2019-04-06T17:10:39.880Z,12.18
2019-04-06T17:13:31.164Z,12.18
2019-04-06T17:16:20.696Z,12.08
2019-04-06T17:18:56.715Z,12.08
2019-04-06T17:21:33.405Z,12.01
2019-04-06T17:24:12.421Z,11.91
2019-04-06T17:26:46.334Z,11.76
2019-04-06T17:29:31.276Z,11.83
2019-04-06T17:32:13.559Z,11.86
2019-04-06T17:34:54.424Z,11.87
2019-04-06T17:37:27.360Z,11.81
2019-04-06T17:40:04.324Z,11.73
2019-04-06T17:42:40.492Z,11.70
2019-04-06T17:45:20.176Z,11.66
2019-04-06T17:48:11.370Z,11.62
2019-04-06T17:50:47.800Z,11.58
2019-04-06T17:53:27.003Z,11.53
2019-04-06T17:56:03.401Z,11.50
2019-04-06T17:58:52.953Z,11.47
2019-04-06T18:01:36.742Z,11.42
2019-04-06T18:04:26.454Z,11.46
2019-04-06T18:07:02.571Z,11.45
2019-04-06T18:09:43.526Z,11.42
2019-04-06T18:12:32.974Z,11.45
2019-04-06T18:15:07.017Z,11.45
2019-04-06T18:17:38.606Z,11.44
2019-04-06T18:20:10.329Z,11.42
2019-04-06T18:22:41.991Z,11.39
2019-04-06T18:25:13.811Z,11.36
2019-04-06T18:27:45.410Z,11.35
2019-04-06T18:30:19.338Z,11.29
2019-04-06T18:32:59.662Z,11.26
2019-04-06T18:35:25.831Z,11.25
2019-04-06T18:38:16.996Z,11.24
2019-04-06T18:40:48.645Z,11.24
2019-04-06T18:43:20.638Z,11.21
2019-04-06T18:45:55.441Z,11.21
2019-04-06T18:48:29.319Z,11.19
2019-04-06T18:51:01.123Z,11.15
2019-04-06T18:53:33.091Z,11.10
2019-04-06T18:56:06.358Z,11.06
2019-04-06T18:58:38.097Z,10.96
2019-04-06T19:01:10.015Z,10.90
2019-04-06T19:03:41.755Z,10.86
2019-04-06T19:06:14.683Z,10.80
2019-04-06T19:08:46.254Z,10.77
2019-04-06T19:11:17.900Z,10.74
2019-04-06T19:13:51.277Z,10.72
2019-04-06T19:16:22.928Z,10.66
2019-04-06T19:18:54.870Z,10.61
2019-04-06T19:21:26.789Z,10.52
2019-04-06T19:23:58.784Z,10.53
2019-04-06T19:26:31.366Z,10.53
2019-04-06T19:29:03.014Z,10.46
2019-04-06T19:31:37.688Z,10.40
2019-04-06T19:34:10.184Z,10.41
2019-04-06T19:36:42.030Z,10.31
2019-04-06T19:39:15.203Z,10.36
2019-04-06T19:41:47.284Z,10.37
2019-04-06T19:44:19.301Z,10.38
2019-04-06T19:46:51.304Z,10.40
2019-04-06T19:49:23.141Z,10.38
2019-04-06T19:51:54.698Z,10.33
2019-04-06T19:54:26.819Z,10.36
2019-04-06T19:56:58.676Z,10.32
2019-04-06T19:59:30.348Z,10.29
2019-04-06T20:02:01.939Z,10.24
2019-04-06T20:04:35.804Z,10.23
2019-04-06T20:07:08.207Z,10.20
2019-04-06T20:09:42.134Z,10.17
2019-04-06T20:12:14.130Z,10.13
2019-04-06T20:14:45.749Z,10.08
2019-04-06T20:17:18.059Z,10.03
2019-04-06T20:19:49.746Z,10.00
2019-04-06T20:22:21.431Z,9.95
2019-04-06T20:24:53.178Z,9.95
2019-04-06T20:27:24.816Z,9.94
2019-04-06T20:29:57.904Z,9.97
2019-04-06T20:32:30.135Z,9.97
2019-04-06T20:35:01.890Z,9.92
2019-04-06T20:37:33.465Z,9.91
2019-04-06T20:40:08.602Z,9.91
2019-04-06T20:42:40.470Z,9.92
2019-04-06T20:45:12.971Z,9.85
2019-04-06T20:47:44.967Z,9.84
2019-04-06T20:50:16.879Z,9.81
2019-04-06T20:52:48.520Z,9.76
2019-04-06T20:55:20.142Z,9.68
2019-04-06T20:57:52.994Z,9.61
2019-04-06T21:00:25.675Z,9.58
2019-04-06T21:02:57.276Z,9.50
2019-04-06T21:05:28.915Z,9.39
2019-04-06T21:08:00.952Z,9.32
2019-04-06T21:10:32.679Z,9.24
2019-04-06T21:13:04.357Z,9.18
2019-04-06T21:15:35.877Z,9.08
2019-04-06T21:18:08.916Z,8.97
2019-04-06T21:20:41.167Z,8.90
2019-04-06T21:23:13.916Z,8.88
2019-04-06T21:25:45.547Z,8.83
2019-04-06T21:28:18.080Z,8.75
2019-04-06T21:30:50.886Z,8.71
2019-04-06T21:33:22.475Z,8.68
2019-04-06T21:35:54.091Z,8.59
2019-04-06T21:38:26.201Z,8.56
2019-04-06T21:40:58.377Z,8.48
2019-04-06T21:43:29.971Z,8.43
2019-04-06T21:46:02.386Z,8.35
2019-04-06T21:48:35.122Z,8.31
2019-04-06T21:51:06.793Z,8.27
2019-04-06T21:53:38.374Z,8.17
2019-04-06T21:56:10.003Z,8.07
2019-04-06T21:58:41.541Z,7.99
2019-04-06T22:01:15.487Z,7.93
2019-04-06T22:03:48.723Z,7.91
2019-04-06T22:06:20.658Z,7.89
2019-04-06T22:08:52.367Z,7.85
2019-04-06T22:11:25.595Z,7.84
2019-04-06T22:13:57.866Z,7.79
2019-04-06T22:16:29.859Z,7.76
2019-04-06T22:19:03.355Z,7.72
2019-04-06T22:21:35.035Z,7.70
2019-04-06T22:24:06.739Z,7.66
2019-04-06T22:26:38.441Z,7.65
2019-04-06T22:29:10.144Z,7.67
2019-04-06T22:31:44.901Z,7.75
2019-04-06T22:34:18.904Z,7.79
2019-04-06T22:36:50.683Z,7.80
2019-04-06T22:39:22.429Z,7.75
2019-04-06T22:41:54.058Z,7.65
2019-04-06T22:44:25.749Z,7.59
2019-04-06T22:46:57.983Z,7.53
2019-04-06T22:49:29.741Z,7.50
2019-04-06T22:52:01.320Z,7.44
2019-04-06T22:54:33.239Z,7.39
2019-04-06T22:57:05.383Z,7.35
2019-04-06T22:59:37.114Z,7.29
2019-04-06T23:02:09.341Z,7.25
2019-04-06T23:04:51.243Z,7.19
2019-04-06T23:07:23.530Z,7.17
2019-04-06T23:09:55.089Z,7.13
2019-04-06T23:12:26.713Z,7.05
2019-04-06T23:14:58.268Z,7.03
2019-04-06T23:17:29.857Z,7.00
2019-04-06T23:20:01.467Z,6.92
2019-04-06T23:22:33.063Z,6.89
2019-04-06T23:25:06.389Z,6.83
2019-04-06T23:27:37.963Z,6.83
2019-04-06T23:30:10.460Z,6.83
2019-04-06T23:32:42.300Z,6.81
2019-04-06T23:35:13.988Z,6.81
2019-04-06T23:37:45.896Z,6.83
2019-04-06T23:40:17.720Z,6.83
2019-04-06T23:42:49.362Z,6.84
2019-04-06T23:45:21.002Z,6.84
2019-04-06T23:47:52.535Z,6.86
2019-04-06T23:50:24.265Z,6.87
2019-04-06T23:52:56.227Z,6.88
2019-04-06T23:55:28.203Z,6.87
2019-04-06T23:57:59.990Z,6.82
